sensor_id;sensor_type;location;lat;lon;timestamp;pressure;altitude;pressure_sealevel;temperature;humidity
19114;BME280;9689;51.052;13.772;2023-05-22T00:02:12;100376.13;;;16.08;71.64
19114;BME280;9689;51.052;13.772;2023-05-22T00:07:14;100383.38;;;16.01;71.75
19114;BME280;9689;51.052;13.772;2023-05-22T00:12:15;100377.38;;;15.98;71.72
19114;BME280;9689;51.052;13.772;2023-05-22T00:17:16;100376.13;;;15.86;72.38
19114;BME280;9689;51.052;13.772;2023-05-22T00:22:18;100376.31;;;15.81;72.85
19114;BME280;9689;51.052;13.772;2023-05-22T00:27:19;100367.69;;;15.78;73.14
19114;BME280;9689;51.052;13.772;2023-05-22T00:32:20;100365.28;;;15.73;73.50
19114;BME280;9689;51.052;13.772;2023-05-22T00:37:22;100369.00;;;15.68;73.92
19114;BME280;9689;51.052;13.772;2023-05-22T00:42:23;100355.56;;;15.52;74.49
19114;BME280;9689;51.052;13.772;2023-05-22T00:47:24;100368.28;;;15.41;74.99
19114;BME280;9689;51.052;13.772;2023-05-22T00:52:27;100362.59;;;15.30;75.35
19114;BME280;9689;51.052;13.772;2023-05-22T00:57:27;100366.78;;;15.34;75.41
19114;BME280;9689;51.052;13.772;2023-05-22T01:02:28;100360.13;;;15.25;75.81
19114;BME280;9689;51.052;13.772;2023-05-22T01:07:33;100361.53;;;15.12;75.96
19114;BME280;9689;51.052;13.772;2023-05-22T01:12:43;100354.66;;;15.08;76.19
19114;BME280;9689;51.052;13.772;2023-05-22T01:17:54;100367.09;;;15.03;76.51
19114;BME280;9689;51.052;13.772;2023-05-22T01:34:30;100380.28;;;14.78;77.39
19114;BME280;9689;51.052;13.772;2023-05-22T01:39:35;100379.72;;;14.68;77.78
19114;BME280;9689;51.052;13.772;2023-05-22T01:44:36;100377.84;;;14.72;77.72
19114;BME280;9689;51.052;13.772;2023-05-22T01:49:38;100370.06;;;14.70;77.56
19114;BME280;9689;51.052;13.772;2023-05-22T01:54:42;100376.56;;;14.58;78.17
19114;BME280;9689;51.052;13.772;2023-05-22T01:59:47;100381.19;;;14.52;78.47
19114;BME280;9689;51.052;13.772;2023-05-22T02:04:55;100381.44;;;14.44;78.75
19114;BME280;9689;51.052;13.772;2023-05-22T02:09:59;100373.69;;;14.39;79.04
19114;BME280;9689;51.052;13.772;2023-05-22T02:15:03;100377.31;;;14.37;79.59
19114;BME280;9689;51.052;13.772;2023-05-22T02:20:09;100384.63;;;14.27;79.83
19114;BME280;9689;51.052;13.772;2023-05-22T02:25:15;100388.25;;;14.23;80.00
19114;BME280;9689;51.052;13.772;2023-05-22T02:30:17;100381.16;;;14.27;79.76
19114;BME280;9689;51.052;13.772;2023-05-22T02:35:22;100368.41;;;14.16;80.33
19114;BME280;9689;51.052;13.772;2023-05-22T02:40:23;100372.75;;;14.17;80.31
19114;BME280;9689;51.052;13.772;2023-05-22T02:45:24;100367.69;;;14.11;80.75
19114;BME280;9689;51.052;13.772;2023-05-22T02:50:26;100362.50;;;14.09;80.65
19114;BME280;9689;51.052;13.772;2023-05-22T02:55:27;100361.78;;;14.04;80.78
19114;BME280;9689;51.052;13.772;2023-05-22T03:00:28;100363.56;;;14.04;80.88
19114;BME280;9689;51.052;13.772;2023-05-22T03:05:31;100364.47;;;14.03;80.66
19114;BME280;9689;51.052;13.772;2023-05-22T03:10:31;100362.00;;;13.98;81.12
19114;BME280;9689;51.052;13.772;2023-05-22T03:15:32;100354.97;;;14.00;80.93
19114;BME280;9689;51.052;13.772;2023-05-22T03:20:43;100359.38;;;13.98;80.46
19114;BME280;9689;51.052;13.772;2023-05-22T03:25:44;100343.69;;;13.97;81.02
19114;BME280;9689;51.052;13.772;2023-05-22T03:30:44;100348.03;;;13.98;81.05
19114;BME280;9689;51.052;13.772;2023-05-22T03:35:53;100344.56;;;13.97;81.16
19114;BME280;9689;51.052;13.772;2023-05-22T03:40:54;100352.22;;;14.03;80.84
19114;BME280;9689;51.052;13.772;2023-05-22T03:45:56;100344.97;;;14.11;80.33
19114;BME280;9689;51.052;13.772;2023-05-22T03:51:00;100340.47;;;14.15;80.51
19114;BME280;9689;51.052;13.772;2023-05-22T03:56:01;100344.50;;;14.25;79.59
19114;BME280;9689;51.052;13.772;2023-05-22T04:01:03;100346.63;;;14.39;79.31
19114;BME280;9689;51.052;13.772;2023-05-22T04:06:05;100335.91;;;14.47;79.29
19114;BME280;9689;51.052;13.772;2023-05-22T04:11:08;100344.94;;;14.63;79.37
19114;BME280;9689;51.052;13.772;2023-05-22T04:16:09;100332.06;;;14.80;78.23
19114;BME280;9689;51.052;13.772;2023-05-22T04:21:11;100336.75;;;14.95;77.63
19114;BME280;9689;51.052;13.772;2023-05-22T04:26:17;100337.91;;;15.12;76.66
19114;BME280;9689;51.052;13.772;2023-05-22T04:31:19;100333.63;;;15.31;75.56
19114;BME280;9689;51.052;13.772;2023-05-22T04:36:22;100335.25;;;15.57;74.64
19114;BME280;9689;51.052;13.772;2023-05-22T04:41:25;100340.81;;;15.71;73.50
19114;BME280;9689;51.052;13.772;2023-05-22T04:46:26;100333.09;;;15.89;72.90
19114;BME280;9689;51.052;13.772;2023-05-22T04:51:28;100337.97;;;15.98;72.61
19114;BME280;9689;51.052;13.772;2023-05-22T04:56:30;100337.78;;;16.02;72.22
19114;BME280;9689;51.052;13.772;2023-05-22T05:01:36;100332.66;;;16.20;71.68
19114;BME280;9689;51.052;13.772;2023-05-22T05:06:38;100331.09;;;16.36;70.44
19114;BME280;9689;51.052;13.772;2023-05-22T05:11:39;100332.41;;;16.46;69.25
19114;BME280;9689;51.052;13.772;2023-05-22T05:16:40;100329.34;;;16.55;69.71
19114;BME280;9689;51.052;13.772;2023-05-22T05:21:43;100338.09;;;16.76;68.56
19114;BME280;9689;51.052;13.772;2023-05-22T05:26:44;100330.25;;;16.95;67.82
19114;BME280;9689;51.052;13.772;2023-05-22T05:31:47;100338.06;;;17.15;67.67
19114;BME280;9689;51.052;13.772;2023-05-22T05:37:04;100333.72;;;17.33;66.92
19114;BME280;9689;51.052;13.772;2023-05-22T05:42:05;100341.31;;;17.58;65.77
19114;BME280;9689;51.052;13.772;2023-05-22T05:47:06;100330.75;;;17.77;65.23
19114;BME280;9689;51.052;13.772;2023-05-22T05:52:08;100336.13;;;17.93;64.28
19114;BME280;9689;51.052;13.772;2023-05-22T05:57:09;100327.19;;;18.13;64.09
19114;BME280;9689;51.052;13.772;2023-05-22T06:02:10;100321.63;;;18.19;63.59
19114;BME280;9689;51.052;13.772;2023-05-22T06:07:12;100325.41;;;18.30;63.64
19114;BME280;9689;51.052;13.772;2023-05-22T06:12:18;100319.41;;;18.44;62.45
19114;BME280;9689;51.052;13.772;2023-05-22T06:17:19;100314.72;;;18.67;61.87
19114;BME280;9689;51.052;13.772;2023-05-22T06:22:23;100305.81;;;18.85;61.16
19114;BME280;9689;51.052;13.772;2023-05-22T06:27:24;100308.91;;;18.93;60.86
19114;BME280;9689;51.052;13.772;2023-05-22T06:32:26;100299.47;;;19.05;60.72
19114;BME280;9689;51.052;13.772;2023-05-22T06:37:29;100297.09;;;19.32;59.82
19114;BME280;9689;51.052;13.772;2023-05-22T06:42:32;100298.00;;;19.46;58.86
19114;BME280;9689;51.052;13.772;2023-05-22T06:47:53;100293.56;;;19.63;58.37
19114;BME280;9689;51.052;13.772;2023-05-22T06:52:56;100292.91;;;19.89;57.98
19114;BME280;9689;51.052;13.772;2023-05-22T06:57:57;100293.47;;;20.24;57.00
19114;BME280;9689;51.052;13.772;2023-05-22T07:02:59;100285.09;;;20.46;56.51
19114;BME280;9689;51.052;13.772;2023-05-22T07:08:06;100292.00;;;20.77;54.90
19114;BME280;9689;51.052;13.772;2023-05-22T07:13:07;100284.38;;;21.14;54.25
19114;BME280;9689;51.052;13.772;2023-05-22T07:18:08;100275.81;;;21.64;52.77
19114;BME280;9689;51.052;13.772;2023-05-22T07:23:13;100278.53;;;21.90;51.52
19114;BME280;9689;51.052;13.772;2023-05-22T07:28:14;100263.19;;;22.46;50.10
19114;BME280;9689;51.052;13.772;2023-05-22T07:33:36;100262.50;;;22.80;49.04
19114;BME280;9689;51.052;13.772;2023-05-22T07:38:38;100252.91;;;23.03;48.17
19114;BME280;9689;51.052;13.772;2023-05-22T07:43:39;100256.41;;;23.28;47.62
19114;BME280;9689;51.052;13.772;2023-05-22T07:48:42;100244.88;;;23.40;46.38
19114;BME280;9689;51.052;13.772;2023-05-22T07:53:44;100243.00;;;23.53;45.44
19114;BME280;9689;51.052;13.772;2023-05-22T07:58:45;100239.84;;;23.72;44.37
19114;BME280;9689;51.052;13.772;2023-05-22T08:03:50;100232.81;;;23.71;44.39
19114;BME280;9689;51.052;13.772;2023-05-22T08:08:53;100225.34;;;23.76;42.59
19114;BME280;9689;51.052;13.772;2023-05-22T08:13:55;100224.13;;;23.80;43.27
19114;BME280;9689;51.052;13.772;2023-05-22T08:18:56;100219.72;;;24.14;41.47
19114;BME280;9689;51.052;13.772;2023-05-22T08:23:58;100220.88;;;24.45;40.59
19114;BME280;9689;51.052;13.772;2023-05-22T08:28:59;100222.91;;;24.64;37.85
19114;BME280;9689;51.052;13.772;2023-05-22T08:34:01;100217.78;;;24.95;38.49
19114;BME280;9689;51.052;13.772;2023-05-22T08:39:04;100211.59;;;25.05;37.80
19114;BME280;9689;51.052;13.772;2023-05-22T08:44:06;100209.16;;;25.14;36.50
19114;BME280;9689;51.052;13.772;2023-05-22T08:49:07;100211.31;;;25.52;35.82
19114;BME280;9689;51.052;13.772;2023-05-22T08:54:09;100203.13;;;25.64;36.06
19114;BME280;9689;51.052;13.772;2023-05-22T08:59:10;100187.63;;;25.58;34.99
19114;BME280;9689;51.052;13.772;2023-05-22T09:04:12;100188.13;;;25.52;35.91
19114;BME280;9689;51.052;13.772;2023-05-22T09:09:14;100191.13;;;25.59;36.61
19114;BME280;9689;51.052;13.772;2023-05-22T09:14:15;100181.50;;;26.09;36.15
19114;BME280;9689;51.052;13.772;2023-05-22T09:19:15;100177.31;;;26.47;35.68
19114;BME280;9689;51.052;13.772;2023-05-22T09:24:17;100178.97;;;26.79;36.08
19114;BME280;9689;51.052;13.772;2023-05-22T09:29:18;100181.00;;;27.35;35.81
19114;BME280;9689;51.052;13.772;2023-05-22T09:34:19;100185.94;;;27.39;34.71
19114;BME280;9689;51.052;13.772;2023-05-22T09:39:22;100176.50;;;27.35;35.52
19114;BME280;9689;51.052;13.772;2023-05-22T09:44:23;100184.84;;;26.72;36.63
19114;BME280;9689;51.052;13.772;2023-05-22T09:49:25;100188.19;;;27.15;37.10
19114;BME280;9689;51.052;13.772;2023-05-22T09:54:28;100182.00;;;27.04;35.77
19114;BME280;9689;51.052;13.772;2023-05-22T09:59:30;100183.28;;;27.29;35.40
19114;BME280;9689;51.052;13.772;2023-05-22T10:04:32;100169.19;;;27.37;34.87
19114;BME280;9689;51.052;13.772;2023-05-22T10:09:37;100171.28;;;27.33;34.81
19114;BME280;9689;51.052;13.772;2023-05-22T10:14:39;100167.28;;;26.89;36.27
19114;BME280;9689;51.052;13.772;2023-05-22T10:19:40;100166.63;;;26.47;36.10
19114;BME280;9689;51.052;13.772;2023-05-22T10:24:46;100163.81;;;26.18;35.96
19114;BME280;9689;51.052;13.772;2023-05-22T10:29:52;100169.41;;;25.84;36.94
19114;BME280;9689;51.052;13.772;2023-05-22T10:35:06;100171.28;;;25.52;35.82
19114;BME280;9689;51.052;13.772;2023-05-22T10:40:12;100168.56;;;25.63;37.19
19114;BME280;9689;51.052;13.772;2023-05-22T10:45:15;100155.59;;;25.58;35.63
19114;BME280;9689;51.052;13.772;2023-05-22T10:50:16;100159.03;;;25.49;36.56
19114;BME280;9689;51.052;13.772;2023-05-22T10:55:21;100151.81;;;25.61;35.44
19114;BME280;9689;51.052;13.772;2023-05-22T11:00:23;100146.16;;;25.96;34.80
19114;BME280;9689;51.052;13.772;2023-05-22T11:05:33;100135.28;;;26.18;34.28
19114;BME280;9689;51.052;13.772;2023-05-22T11:10:52;100136.97;;;26.19;33.25
19114;BME280;9689;51.052;13.772;2023-05-22T11:15:54;100122.81;;;26.29;32.57
19114;BME280;9689;51.052;13.772;2023-05-22T11:20:58;100122.72;;;26.40;31.77
19114;BME280;9689;51.052;13.772;2023-05-22T11:26:16;100121.69;;;26.91;32.15
19114;BME280;9689;51.052;13.772;2023-05-22T11:31:17;100111.13;;;26.99;31.67
19114;BME280;9689;51.052;13.772;2023-05-22T11:36:18;100110.53;;;26.66;32.92
19114;BME280;9689;51.052;13.772;2023-05-22T11:41:21;100098.06;;;26.86;33.37
19114;BME280;9689;51.052;13.772;2023-05-22T11:46:22;100094.50;;;26.57;33.95
19114;BME280;9689;51.052;13.772;2023-05-22T11:51:24;100092.84;;;26.25;34.99
19114;BME280;9689;51.052;13.772;2023-05-22T11:56:26;100085.25;;;26.20;34.73
19114;BME280;9689;51.052;13.772;2023-05-22T12:01:29;100089.84;;;26.49;34.84
19114;BME280;9689;51.052;13.772;2023-05-22T12:06:30;100084.81;;;26.75;34.37
19114;BME280;9689;51.052;13.772;2023-05-22T12:11:35;100078.19;;;26.79;34.36
19114;BME280;9689;51.052;13.772;2023-05-22T12:16:36;100079.75;;;26.82;33.58
19114;BME280;9689;51.052;13.772;2023-05-22T12:21:37;100072.72;;;26.71;34.56
19114;BME280;9689;51.052;13.772;2023-05-22T12:26:48;100069.03;;;26.82;34.42
19114;BME280;9689;51.052;13.772;2023-05-22T12:31:50;100074.09;;;26.46;33.69
19114;BME280;9689;51.052;13.772;2023-05-22T12:36:50;100062.56;;;26.65;34.13
19114;BME280;9689;51.052;13.772;2023-05-22T12:41:53;100065.66;;;27.18;34.02
19114;BME280;9689;51.052;13.772;2023-05-22T12:46:53;100055.63;;;27.49;32.30
19114;BME280;9689;51.052;13.772;2023-05-22T12:51:54;100058.31;;;27.40;32.27
19114;BME280;9689;51.052;13.772;2023-05-22T12:56:56;100052.56;;;27.35;31.40
19114;BME280;9689;51.052;13.772;2023-05-22T13:01:57;100045.28;;;27.64;32.39
19114;BME280;9689;51.052;13.772;2023-05-22T13:07:00;100052.06;;;27.68;31.30
19114;BME280;9689;51.052;13.772;2023-05-22T13:12:03;100039.72;;;27.48;30.82
19114;BME280;9689;51.052;13.772;2023-05-22T13:17:05;100044.84;;;27.78;31.64
19114;BME280;9689;51.052;13.772;2023-05-22T13:22:06;100037.69;;;27.97;31.92
19114;BME280;9689;51.052;13.772;2023-05-22T13:27:08;100033.53;;;28.39;30.17
19114;BME280;9689;51.052;13.772;2023-05-22T13:32:10;100041.22;;;28.52;29.94
19114;BME280;9689;51.052;13.772;2023-05-22T13:37:11;100025.56;;;28.02;30.15
19114;BME280;9689;51.052;13.772;2023-05-22T13:42:13;100019.38;;;28.65;30.10
19114;BME280;9689;51.052;13.772;2023-05-22T13:47:14;100017.75;;;28.72;30.33
19114;BME280;9689;51.052;13.772;2023-05-22T13:52:15;100005.78;;;28.84;29.53
19114;BME280;9689;51.052;13.772;2023-05-22T13:57:17;100009.41;;;28.57;30.31
19114;BME280;9689;51.052;13.772;2023-05-22T14:02:18;99996.47;;;28.53;29.23
19114;BME280;9689;51.052;13.772;2023-05-22T14:07:19;99998.91;;;28.64;29.70
19114;BME280;9689;51.052;13.772;2023-05-22T14:12:21;99994.06;;;28.85;29.50
19114;BME280;9689;51.052;13.772;2023-05-22T14:17:22;99994.09;;;28.67;29.66
19114;BME280;9689;51.052;13.772;2023-05-22T14:22:24;99980.06;;;28.38;29.44
19114;BME280;9689;51.052;13.772;2023-05-22T14:27:26;99976.16;;;28.68;29.34
19114;BME280;9689;51.052;13.772;2023-05-22T14:32:27;99972.53;;;28.95;30.16
19114;BME280;9689;51.052;13.772;2023-05-22T14:37:28;99974.81;;;29.08;29.48
19114;BME280;9689;51.052;13.772;2023-05-22T14:42:30;99972.63;;;28.85;28.86
19114;BME280;9689;51.052;13.772;2023-05-22T14:47:31;99970.94;;;29.02;29.00
19114;BME280;9689;51.052;13.772;2023-05-22T14:52:31;99965.75;;;29.09;28.77
19114;BME280;9689;51.052;13.772;2023-05-22T14:57:33;99966.06;;;29.32;28.45
19114;BME280;9689;51.052;13.772;2023-05-22T15:02:34;99963.47;;;29.48;29.08
19114;BME280;9689;51.052;13.772;2023-05-22T15:07:36;99960.44;;;28.91;28.71
19114;BME280;9689;51.052;13.772;2023-05-22T15:12:45;99966.06;;;28.62;29.00
19114;BME280;9689;51.052;13.772;2023-05-22T15:17:48;99956.75;;;28.74;28.64
19114;BME280;9689;51.052;13.772;2023-05-22T15:22:49;99952.06;;;28.05;29.03
19114;BME280;9689;51.052;13.772;2023-05-22T15:27:51;99947.44;;;28.25;29.18
19114;BME280;9689;51.052;13.772;2023-05-22T15:32:51;99959.53;;;28.29;29.12
19114;BME280;9689;51.052;13.772;2023-05-22T15:37:52;99949.66;;;28.29;28.57
19114;BME280;9689;51.052;13.772;2023-05-22T15:42:56;99941.69;;;28.37;28.52
19114;BME280;9689;51.052;13.772;2023-05-22T15:48:00;99938.78;;;28.31;28.19
19114;BME280;9689;51.052;13.772;2023-05-22T15:53:01;99936.25;;;27.66;29.15
19114;BME280;9689;51.052;13.772;2023-05-22T15:58:03;99934.72;;;27.54;29.74
19114;BME280;9689;51.052;13.772;2023-05-22T16:03:06;99940.88;;;27.92;29.75
19114;BME280;9689;51.052;13.772;2023-05-22T16:08:08;99923.00;;;28.28;29.61
19114;BME280;9689;51.052;13.772;2023-05-22T16:13:10;99927.97;;;28.40;29.16
19114;BME280;9689;51.052;13.772;2023-05-22T16:18:11;99920.72;;;28.15;28.31
19114;BME280;9689;51.052;13.772;2023-05-22T16:23:12;99912.06;;;29.09;27.41
19114;BME280;9689;51.052;13.772;2023-05-22T16:28:14;99914.34;;;29.55;26.42
19114;BME280;9689;51.052;13.772;2023-05-22T16:33:18;99910.25;;;29.86;26.40
19114;BME280;9689;51.052;13.772;2023-05-22T16:38:18;99904.59;;;30.13;26.43
19114;BME280;9689;51.052;13.772;2023-05-22T16:43:21;99903.25;;;31.54;24.62
19114;BME280;9689;51.052;13.772;2023-05-22T16:48:21;99903.44;;;30.81;26.37
19114;BME280;9689;51.052;13.772;2023-05-22T16:53:22;99903.97;;;30.76;25.84
19114;BME280;9689;51.052;13.772;2023-05-22T16:58:24;99907.56;;;29.43;28.35
19114;BME280;9689;51.052;13.772;2023-05-22T17:03:25;99909.16;;;30.13;27.51
19114;BME280;9689;51.052;13.772;2023-05-22T17:08:27;99905.97;;;29.59;28.05
19114;BME280;9689;51.052;13.772;2023-05-22T17:13:29;99912.28;;;28.46;30.02
19114;BME280;9689;51.052;13.772;2023-05-22T17:18:30;99909.06;;;28.06;31.01
19114;BME280;9689;51.052;13.772;2023-05-22T17:23:31;99914.25;;;26.88;32.84
19114;BME280;9689;51.052;13.772;2023-05-22T17:28:36;99923.66;;;25.96;34.37
19114;BME280;9689;51.052;13.772;2023-05-22T17:33:37;99920.94;;;25.36;36.20
19114;BME280;9689;51.052;13.772;2023-05-22T17:38:49;99929.81;;;25.06;37.02
19114;BME280;9689;51.052;13.772;2023-05-22T17:44:06;99926.22;;;24.75;37.89
19114;BME280;9689;51.052;13.772;2023-05-22T17:49:06;99935.69;;;25.30;37.03
19114;BME280;9689;51.052;13.772;2023-05-22T17:54:07;99940.31;;;25.28;37.17
19114;BME280;9689;51.052;13.772;2023-05-22T17:59:09;99934.75;;;24.69;38.32
19114;BME280;9689;51.052;13.772;2023-05-22T18:04:10;99937.25;;;24.17;39.20
19114;BME280;9689;51.052;13.772;2023-05-22T18:09:11;99948.66;;;23.97;40.38
19114;BME280;9689;51.052;13.772;2023-05-22T18:14:13;99944.22;;;23.53;41.07
19114;BME280;9689;51.052;13.772;2023-05-22T18:19:14;99940.97;;;23.27;42.07
19114;BME280;9689;51.052;13.772;2023-05-22T18:24:15;99937.69;;;23.01;42.82
19114;BME280;9689;51.052;13.772;2023-05-22T18:29:17;99939.06;;;22.82;42.79
19114;BME280;9689;51.052;13.772;2023-05-22T18:34:18;99930.09;;;22.61;43.75
19114;BME280;9689;51.052;13.772;2023-05-22T18:39:19;99928.84;;;22.43;44.27
19114;BME280;9689;51.052;13.772;2023-05-22T18:44:21;99935.91;;;22.07;45.26
19114;BME280;9689;51.052;13.772;2023-05-22T18:49:22;99940.16;;;21.97;45.80
19114;BME280;9689;51.052;13.772;2023-05-22T18:54:23;99949.25;;;21.69;46.26
19114;BME280;9689;51.052;13.772;2023-05-22T18:59:25;99953.22;;;21.51;46.29
19114;BME280;9689;51.052;13.772;2023-05-22T19:04:26;99956.44;;;21.30;47.35
19114;BME280;9689;51.052;13.772;2023-05-22T19:09:27;99956.81;;;21.24;47.19
19114;BME280;9689;51.052;13.772;2023-05-22T19:14:29;99963.72;;;21.14;48.10
19114;BME280;9689;51.052;13.772;2023-05-22T19:19:30;99963.72;;;21.01;48.20
19114;BME280;9689;51.052;13.772;2023-05-22T19:24:31;99966.47;;;20.87;48.51
19114;BME280;9689;51.052;13.772;2023-05-22T19:29:33;99962.09;;;20.73;49.25
19114;BME280;9689;51.052;13.772;2023-05-22T19:34:34;99962.47;;;20.54;49.47
19114;BME280;9689;51.052;13.772;2023-05-22T19:39:35;99976.00;;;20.50;49.91
19114;BME280;9689;51.052;13.772;2023-05-22T19:44:37;99971.16;;;20.29;50.79
19114;BME280;9689;51.052;13.772;2023-05-22T19:49:38;99980.16;;;20.27;50.17
19114;BME280;9689;51.052;13.772;2023-05-22T19:54:39;99985.94;;;20.19;49.95
19114;BME280;9689;51.052;13.772;2023-05-22T19:59:41;99991.34;;;20.18;49.55
19114;BME280;9689;51.052;13.772;2023-05-22T20:04:42;99987.28;;;20.12;49.27
19114;BME280;9689;51.052;13.772;2023-05-22T20:09:43;100000.16;;;20.04;49.10
19114;BME280;9689;51.052;13.772;2023-05-22T20:14:45;99996.03;;;20.00;49.40
19114;BME280;9689;51.052;13.772;2023-05-22T20:19:45;99987.53;;;19.81;49.07
19114;BME280;9689;51.052;13.772;2023-05-22T20:24:46;99980.69;;;19.64;48.92
19114;BME280;9689;51.052;13.772;2023-05-22T20:29:48;99980.28;;;19.56;49.44
19114;BME280;9689;51.052;13.772;2023-05-22T20:34:49;99979.91;;;19.47;49.56
19114;BME280;9689;51.052;13.772;2023-05-22T20:39:50;99980.66;;;19.35;50.38
19114;BME280;9689;51.052;13.772;2023-05-22T20:44:52;99978.78;;;19.37;49.92
19114;BME280;9689;51.052;13.772;2023-05-22T20:49:53;99969.91;;;19.38;50.26
19114;BME280;9689;51.052;13.772;2023-05-22T20:54:54;99976.03;;;19.25;50.70
19114;BME280;9689;51.052;13.772;2023-05-22T20:59:56;99961.47;;;19.17;51.56
19114;BME280;9689;51.052;13.772;2023-05-22T21:04:57;99962.25;;;19.05;51.71
19114;BME280;9689;51.052;13.772;2023-05-22T21:09:58;99961.56;;;19.02;52.04
19114;BME280;9689;51.052;13.772;2023-05-22T21:15:00;99960.81;;;18.85;52.22
19114;BME280;9689;51.052;13.772;2023-05-22T21:20:01;99964.06;;;18.75;52.08
19114;BME280;9689;51.052;13.772;2023-05-22T21:25:05;99966.03;;;18.71;52.71
19114;BME280;9689;51.052;13.772;2023-05-22T21:30:10;99964.94;;;18.59;52.43
19114;BME280;9689;51.052;13.772;2023-05-22T21:35:11;99962.34;;;18.44;53.37
19114;BME280;9689;51.052;13.772;2023-05-22T21:40:12;99953.22;;;18.49;52.95
19114;BME280;9689;51.052;13.772;2023-05-22T21:45:14;99963.19;;;18.44;53.38
19114;BME280;9689;51.052;13.772;2023-05-22T21:50:15;99957.84;;;18.30;53.86
19114;BME280;9689;51.052;13.772;2023-05-22T21:55:16;99956.81;;;18.32;53.54
19114;BME280;9689;51.052;13.772;2023-05-22T22:00:18;99956.66;;;18.35;54.09
19114;BME280;9689;51.052;13.772;2023-05-22T22:05:19;99957.19;;;18.26;54.27
19114;BME280;9689;51.052;13.772;2023-05-22T22:10:20;99957.84;;;18.30;54.20
19114;BME280;9689;51.052;13.772;2023-05-22T22:15:22;99964.16;;;18.27;53.26
19114;BME280;9689;51.052;13.772;2023-05-22T22:20:23;99968.91;;;18.36;54.01
19114;BME280;9689;51.052;13.772;2023-05-22T22:25:42;99972.66;;;18.32;53.66
19114;BME280;9689;51.052;13.772;2023-05-22T22:30:44;99960.06;;;18.38;54.68
19114;BME280;9689;51.052;13.772;2023-05-22T22:35:46;99958.44;;;18.35;54.73
19114;BME280;9689;51.052;13.772;2023-05-22T22:40:47;99970.84;;;18.33;54.86
19114;BME280;9689;51.052;13.772;2023-05-22T22:45:49;99976.31;;;18.30;55.29
19114;BME280;9689;51.052;13.772;2023-05-22T22:50:50;99978.13;;;18.14;56.17
19114;BME280;9689;51.052;13.772;2023-05-22T22:55:54;99964.91;;;18.29;56.37
19114;BME280;9689;51.052;13.772;2023-05-22T23:00:56;99972.09;;;18.27;56.60
19114;BME280;9689;51.052;13.772;2023-05-22T23:05:57;99965.53;;;18.19;57.26
19114;BME280;9689;51.052;13.772;2023-05-22T23:10:58;99973.28;;;18.06;57.94
19114;BME280;9689;51.052;13.772;2023-05-22T23:16:00;99967.75;;;18.11;57.41
19114;BME280;9689;51.052;13.772;2023-05-22T23:21:00;99950.34;;;18.08;57.96
19114;BME280;9689;51.052;13.772;2023-05-22T23:26:01;99932.81;;;18.07;57.16
19114;BME280;9689;51.052;13.772;2023-05-22T23:31:03;99932.41;;;17.99;56.86
19114;BME280;9689;51.052;13.772;2023-05-22T23:36:04;99937.91;;;17.94;56.32
19114;BME280;9689;51.052;13.772;2023-05-22T23:41:05;99940.38;;;17.97;56.07
19114;BME280;9689;51.052;13.772;2023-05-22T23:46:07;99933.50;;;17.79;56.46
19114;BME280;9689;51.052;13.772;2023-05-22T23:51:08;99934.09;;;17.84;57.36
19114;BME280;9689;51.052;13.772;2023-05-22T23:56:13;99943.09;;;17.80;58.08
